Time;durP1;ratioP1;P1;durP2;ratioP2;P2;SDS_P1;SDS_P2;PMS_P1;PMS_P2;Temp;Humidity;BMP_temperature;BMP_pressure;BME280_temperature;BME280_humidity;BME280_pressure;Samples;Min_cycle;Max_cycle;Signal;HPM_P1;HPM_P2
2022/10/18 00:02:46;;;;;;;5.50;4.90;;;;;;;11.54;70.42;100404.97;418192;1287;142156;-65
2022/10/18 00:12:52;;;;;;;9.40;5.30;;;;;;;11.37;70.59;100400.45;419081;1284;145146;-65
2022/10/18 00:22:58;;;;;;;6.60;4.50;;;;;;;11.21;71.02;100403.03;418622;1287;143199;-65
2022/10/18 00:33:04;;;;;;;6.70;5.40;;;;;;;11.05;71.46;100397.61;418061;1288;143424;-65
2022/10/18 00:43:16;;;;;;;8.20;5.30;;;;;;;10.91;71.68;100389.05;419061;1288;142084;-66
2022/10/18 00:53:23;;;;;;;6.60;5.70;;;;;;;10.77;71.96;100383.66;418445;1281;162803;-66
2022/10/18 01:03:29;;;;;;;5.90;4.80;;;;;;;10.65;72.27;100381.14;418478;1289;165958;-65
2022/10/18 01:13:47;;;;;;;6.00;5.40;;;;;;;10.59;72.63;100373.34;418307;1285;142481;-65
2022/10/18 01:24:25;;;;;;;6.60;4.80;;;;;;;10.59;72.79;100365.45;417989;1287;143144;-65
2022/10/18 01:34:36;;;;;;;6.60;5.90;;;;;;;10.60;72.96;100354.92;420604;1281;141731;-65
2022/10/18 01:44:43;;;;;;;6.40;5.80;;;;;;;10.62;73.17;100357.44;417584;1286;162550;-65
2022/10/18 01:54:50;;;;;;;7.40;5.00;;;;;;;10.65;73.19;100356.75;419021;1284;141733;-67
2022/10/18 02:05:02;;;;;;;6.10;5.60;;;;;;;10.60;73.25;100338.84;420549;1286;142229;-66
2022/10/18 02:15:13;;;;;;;7.40;6.00;;;;;;;10.50;73.32;100333.17;419128;1294;141059;-66
2022/10/18 02:25:23;;;;;;;18.30;6.70;;;;;;;10.41;73.66;100332.59;419462;1287;142139;-66
2022/10/18 02:35:32;;;;;;;10.40;6.70;;;;;;;10.36;73.81;100336.48;419075;1287;141700;-66
2022/10/18 02:45:38;;;;;;;24.80;7.40;;;;;;;10.28;73.99;100342.70;419598;1281;142354;-66
2022/10/18 02:55:43;;;;;;;10.50;6.80;;;;;;;10.11;74.01;100344.73;419243;1277;142716;-65
2022/10/18 03:05:52;;;;;;;15.40;7.20;;;;;;;9.89;74.06;100351.40;418546;1284;141571;-65
2022/10/18 03:15:58;;;;;;;32.20;8.30;;;;;;;9.67;74.21;100353.36;419260;1278;141479;-67
2022/10/18 03:26:04;;;;;;;19.00;6.20;;;;;;;9.49;74.93;100360.34;420328;1277;142488;-66
2022/10/18 03:36:10;;;;;;;17.10;6.50;;;;;;;9.35;74.83;100357.63;419399;1278;141774;-65
2022/10/18 03:46:15;;;;;;;8.90;6.50;;;;;;;9.28;75.11;100353.77;419608;1285;142060;-65
2022/10/18 03:56:21;;;;;;;8.10;6.40;;;;;;;9.27;75.27;100352.92;418202;1278;162645;-65
2022/10/18 04:06:27;;;;;;;10.00;7.00;;;;;;;9.19;75.22;100352.08;419888;1277;143878;-66
2022/10/18 04:16:33;;;;;;;11.00;6.70;;;;;;;9.11;75.32;100353.86;421193;1285;142161;-64
2022/10/18 04:26:43;;;;;;;24.70;7.40;;;;;;;9.03;75.70;100350.56;420048;1277;145729;-67
2022/10/18 04:36:49;;;;;;;12.60;6.10;;;;;;;8.99;75.99;100342.86;421734;1277;145941;-64
2022/10/18 04:46:55;;;;;;;13.50;6.40;;;;;;;8.89;76.02;100343.45;424169;1277;141271;-65
2022/10/18 04:57:00;;;;;;;10.70;7.00;;;;;;;8.72;76.11;100342.83;424158;1284;142627;-65
2022/10/18 05:07:06;;;;;;;12.50;7.90;;;;;;;8.70;76.48;100341.35;426739;1287;196650;-65
2022/10/18 05:17:12;;;;;;;18.30;7.80;;;;;;;8.68;76.62;100342.83;435378;1285;142730;-72
2022/10/18 05:27:18;;;;;;;18.80;8.90;;;;;;;8.77;76.97;100348.55;427965;1286;208936;-71
2022/10/18 05:37:24;;;;;;;23.00;7.80;;;;;;;9.00;76.76;100340.89;432483;1286;155499;-72
2022/10/18 05:47:33;;;;;;;25.40;8.80;;;;;;;9.32;76.44;100341.85;434719;1278;143675;-71
2022/10/18 05:57:39;;;;;;;12.60;7.90;;;;;;;9.94;76.49;100347.81;435390;1277;142570;-72
2022/10/18 06:07:45;;;;;;;18.80;8.50;;;;;;;10.82;75.52;100341.86;435559;1284;142532;-73
2022/10/18 06:17:51;;;;;;;21.10;6.90;;;;;;;12.01;74.12;100343.23;432046;1285;143952;-72
2022/10/18 06:27:57;;;;;;;16.30;8.00;;;;;;;13.09;72.13;100349.84;430315;1285;143075;-72
2022/10/18 06:38:03;;;;;;;11.40;7.80;;;;;;;14.39;70.14;100356.28;419009;1278;143191;-70
2022/10/18 06:48:09;;;;;;;17.80;6.80;;;;;;;15.66;68.14;100358.36;434828;1285;142776;-71
2022/10/18 06:58:15;;;;;;;13.30;6.10;;;;;;;16.62;66.36;100357.63;435559;1286;143712;-71
2022/10/18 07:08:21;;;;;;;6.70;5.80;;;;;;;17.47;64.74;100351.65;434858;1285;143234;-70
2022/10/18 07:18:26;;;;;;;6.90;5.50;;;;;;;18.95;62.16;100344.70;435495;1281;142283;-71
2022/10/18 07:28:32;;;;;;;5.50;4.50;;;;;;;21.02;59.13;100343.73;433084;1278;141704;-70
2022/10/18 07:38:38;;;;;;;5.80;4.20;;;;;;;22.49;55.49;100344.89;431966;1291;142452;-71
2022/10/18 07:48:44;;;;;;;6.30;3.90;;;;;;;23.78;52.89;100336.34;435549;1286;141650;-70
2022/10/18 07:58:51;;;;;;;8.30;5.10;;;;;;;24.53;49.89;100329.04;435566;1286;141721;-71
2022/10/18 08:08:57;;;;;;;6.70;4.20;;;;;;;24.66;48.90;100319.20;434807;1284;141572;-71
2022/10/18 08:19:03;;;;;;;9.90;6.40;;;;;;;25.79;46.64;100307.98;435602;1284;142150;-71
2022/10/18 08:29:09;;;;;;;8.00;4.50;;;;;;;25.40;45.68;100304.23;428773;1278;143358;-69
2022/10/18 08:39:28;;;;;;;7.70;5.70;;;;;;;25.99;44.88;100306.47;433261;1293;142449;-71
2022/10/18 08:49:41;;;;;;;6.60;5.60;;;;;;;28.33;42.68;100301.15;420134;1278;143006;-72
2022/10/18 08:59:51;;;;;;;6.80;6.00;;;;;;;27.11;41.66;100290.79;429461;1278;141608;-71
2022/10/18 09:10:03;;;;;;;6.30;5.70;;;;;;;26.01;42.36;100291.23;433000;1287;185118;-70
2022/10/18 09:20:20;;;;;;;7.10;5.70;;;;;;;24.42;43.67;100285.67;435665;1290;142105;-70
2022/10/18 09:30:39;;;;;;;9.20;6.10;;;;;;;23.63;44.77;100282.66;425691;1287;142797;-69
2022/10/18 09:40:52;;;;;;;9.00;7.20;;;;;;;23.02;45.44;100274.83;435578;1285;142650;-71
2022/10/18 09:51:02;;;;;;;10.00;8.00;;;;;;;22.35;46.63;100257.81;428569;1285;142300;-71
2022/10/18 10:01:09;;;;;;;10.40;8.80;;;;;;;22.03;47.27;100245.70;432042;1284;146988;-70
2022/10/18 10:11:36;;;;;;;13.00;9.00;;;;;;;21.25;48.47;100238.58;434715;1293;141011;-71
2022/10/18 10:21:42;;;;;;;9.40;8.50;;;;;;;21.00;49.60;100215.67;435260;1286;199421;-70
2022/10/18 10:32:03;;;;;;;11.40;9.10;;;;;;;20.82;50.23;100198.56;426710;1284;141387;-70
2022/10/18 10:42:14;;;;;;;12.90;10.00;;;;;;;20.53;51.16;100193.35;434851;1283;142759;-70
2022/10/18 10:52:23;;;;;;;13.60;10.30;;;;;;;20.38;51.84;100184.98;435582;1283;143397;-73
2022/10/18 11:02:34;;;;;;;10.10;9.10;;;;;;;20.14;52.44;100171.61;434804;1278;143261;-71
2022/10/18 11:12:43;;;;;;;12.00;9.70;;;;;;;20.14;52.94;100157.88;435596;1285;144075;-72
2022/10/18 11:22:59;;;;;;;14.90;10.30;;;;;;;20.26;53.35;100135.64;435601;1284;140887;-71
2022/10/18 11:33:15;;;;;;;13.80;10.60;;;;;;;20.32;53.53;100113.24;430214;1284;142019;-72
2022/10/18 11:43:27;;;;;;;16.20;10.60;;;;;;;19.94;54.25;100097.38;428085;1284;142437;-70
2022/10/18 11:54:05;;;;;;;11.30;10.20;;;;;;;20.01;54.72;100079.58;419553;1284;141673;-71
2022/10/18 12:04:17;;;;;;;14.10;11.10;;;;;;;20.11;54.76;100066.01;435633;1283;142759;-72
2022/10/18 12:14:27;;;;;;;12.10;10.80;;;;;;;20.20;55.00;100052.17;434858;1283;163279;-71
2022/10/18 12:24:33;;;;;;;13.40;11.70;;;;;;;20.31;55.04;100038.58;435641;1285;143202;-72
2022/10/18 12:34:45;;;;;;;12.00;10.50;;;;;;;20.15;55.37;100032.73;431118;1291;142797;-71
2022/10/18 12:45:00;;;;;;;13.60;10.80;;;;;;;20.15;55.74;100014.55;434841;1291;142848;-71
2022/10/18 12:55:35;;;;;;;15.90;11.00;;;;;;;20.21;56.03;99997.11;435588;1283;142241;-71
2022/10/18 13:05:57;;;;;;;15.10;10.90;;;;;;;20.18;56.13;99973.45;434802;1281;142378;-72
2022/10/18 13:16:15;;;;;;;11.80;10.60;;;;;;;19.96;56.45;99956.92;435604;1283;142614;-71
2022/10/18 13:26:30;;;;;;;13.90;12.10;;;;;;;19.72;56.91;99953.98;434862;1285;142431;-71
2022/10/18 13:36:38;;;;;;;15.60;12.80;;;;;;;19.64;57.33;99942.52;426166;1283;142480;-72
2022/10/18 13:47:14;;;;;;;19.60;11.40;;;;;;;19.42;57.90;99941.40;435580;1284;142705;-72
2022/10/18 13:57:36;;;;;;;14.00;12.50;;;;;;;19.14;58.49;99938.73;434641;1290;143112;-70
2022/10/18 14:07:44;;;;;;;14.10;10.60;;;;;;;18.75;59.27;99903.56;431116;1283;142465;-71
2022/10/18 14:17:54;;;;;;;22.90;14.30;;;;;;;18.64;60.04;99886.98;434688;1293;141904;-71
2022/10/18 14:28:13;;;;;;;16.30;13.10;;;;;;;18.52;60.75;99874.23;423142;1291;142101;-71
2022/10/18 14:38:21;;;;;;;19.40;14.00;;;;;;;18.25;61.52;99874.02;419992;1289;142794;-70
2022/10/18 14:48:27;;;;;;;16.10;14.60;;;;;;;17.85;63.11;99867.56;433899;1286;142566;-72
2022/10/18 14:58:34;;;;;;;16.10;14.70;;;;;;;17.41;64.96;99870.34;432435;1291;142221;-72
2022/10/18 15:08:42;;;;;;;16.70;14.90;;;;;;;17.08;66.55;99884.30;434801;1290;144891;-71
2022/10/18 15:19:03;;;;;;;17.00;15.20;;;;;;;16.89;67.73;99892.64;435468;1283;184785;-71
2022/10/18 15:29:18;;;;;;;20.80;17.10;;;;;;;16.65;69.35;99898.02;435320;1286;142097;-72
2022/10/18 15:39:26;;;;;;;24.60;19.40;;;;;;;16.52;70.79;99916.30;431456;1290;212025;-71
2022/10/18 15:49:54;;;;;;;5.40;2.40;;;;;;;15.85;71.57;99946.98;435521;1284;143376;-72
2022/10/18 16:00:01;;;;;;;;;;;;;;;14.77;72.92;99977.30;428941;1282;145580;-70
2022/10/18 16:10:14;;;;;;;2.90;2.20;;;;;;;14.19;74.03;99983.12;419857;1278;128832;-71
2022/10/18 16:20:22;;;;;;;3.80;3.40;;;;;;;13.79;75.21;99990.39;420273;1284;145868;-71
2022/10/18 16:30:31;;;;;;;5.40;4.80;;;;;;;13.54;76.52;100016.23;419374;1285;142504;-72
2022/10/18 16:40:37;;;;;;;5.20;4.60;;;;;;;13.43;77.53;100034.67;418921;1285;145721;-71
2022/10/18 16:50:46;;;;;;;5.80;4.20;;;;;;;13.31;79.01;100045.54;419432;1285;142362;-72
2022/10/18 17:00:52;;;;;;;2.90;2.50;;;;;;;13.16;79.63;100067.83;419592;1284;142201;-71
2022/10/18 17:11:00;;;;;;;3.60;2.80;;;;;;;12.97;80.44;100085.20;418839;1278;145448;-71
2022/10/18 17:21:06;;;;;;;2.60;2.40;;;;;;;12.90;81.04;100095.90;418936;1284;147846;-72
2022/10/18 17:31:14;;;;;;;5.70;2.70;;;;;;;12.78;81.60;100071.71;419212;1278;142967;-71
2022/10/18 17:41:21;;;;;;;4.40;3.30;;;;;;;12.69;81.96;100078.08;418449;1278;148668;-70
2022/10/18 17:51:26;;;;;;;5.20;4.10;;;;;;;12.65;82.42;100078.88;419506;1278;142721;-72
2022/10/18 18:01:33;;;;;;;6.40;5.40;;;;;;;12.64;83.01;100095.43;420249;1277;143442;-73
2022/10/18 18:11:42;;;;;;;7.40;5.70;;;;;;;12.61;83.44;100102.95;420853;1282;142977;-74
2022/10/18 18:21:48;;;;;;;7.10;5.70;;;;;;;12.59;84.02;100113.30;421441;1285;141760;-74
2022/10/18 18:31:54;;;;;;;6.60;5.90;;;;;;;12.54;84.44;100105.05;420141;1284;143585;-73
2022/10/18 18:42:00;;;;;;;6.20;5.20;;;;;;;12.45;84.80;100116.13;418811;1285;144178;-72
2022/10/18 18:52:06;;;;;;;5.60;4.90;;;;;;;12.36;85.22;100114.05;420204;1285;143228;-73
2022/10/18 19:02:12;;;;;;;6.50;5.80;;;;;;;12.24;85.39;100124.27;419661;1278;142514;-73
2022/10/18 19:12:18;;;;;;;7.20;6.50;;;;;;;12.16;85.89;100141.11;421498;1280;207487;-73
2022/10/18 19:22:26;;;;;;;5.60;5.00;;;;;;;12.04;86.05;100133.77;419094;1278;142425;-73
2022/10/18 19:32:31;;;;;;;6.60;4.80;;;;;;;11.93;86.34;100133.66;425500;1285;143226;-72
2022/10/18 19:42:38;;;;;;;6.10;5.50;;;;;;;11.82;86.69;100133.83;429375;1279;142998;-72
2022/10/18 19:52:43;;;;;;;6.50;5.30;;;;;;;11.88;87.29;100132.55;426549;1285;143442;-73
2022/10/18 20:02:49;;;;;;;7.00;5.30;;;;;;;11.97;87.35;100124.15;418237;1278;149193;-73
2022/10/18 20:12:55;;;;;;;5.70;5.00;;;;;;;11.92;87.37;100126.06;419388;1278;141401;-72
2022/10/18 20:23:01;;;;;;;7.90;5.40;;;;;;;11.57;87.35;100131.60;419493;1277;143578;-73
2022/10/18 20:33:07;;;;;;;7.40;6.00;;;;;;;11.16;87.73;100128.41;418793;1278;145863;-73
2022/10/18 20:43:13;;;;;;;6.60;5.20;;;;;;;10.86;88.28;100124.69;419508;1278;145288;-73
2022/10/18 20:53:20;;;;;;;7.60;6.90;;;;;;;10.77;89.38;100133.05;418406;1278;145891;-72
2022/10/18 21:03:26;;;;;;;8.00;6.90;;;;;;;10.97;90.15;100141.02;419032;1278;142242;-73
2022/10/18 21:13:33;;;;;;;11.20;8.80;;;;;;;11.19;90.64;100144.50;420309;1278;143174;-72
2022/10/18 21:23:39;;;;;;;12.90;10.10;;;;;;;11.43;90.93;100146.80;418428;1285;144787;-74
2022/10/18 21:33:47;;;;;;;11.40;9.70;;;;;;;11.59;90.81;100135.91;419109;1285;143075;-73
2022/10/18 21:43:54;;;;;;;14.40;11.90;;;;;;;11.68;90.72;100132.06;420542;1280;142256;-74
2022/10/18 21:54:01;;;;;;;13.20;10.80;;;;;;;11.73;90.76;100123.98;419092;1284;143361;-75
2022/10/18 22:04:17;;;;;;;13.30;11.90;;;;;;;11.74;90.44;100123.23;420167;1285;142003;-72
2022/10/18 22:14:24;;;;;;;14.40;11.70;;;;;;;11.71;90.38;100122.41;420366;1285;143356;-73
2022/10/18 22:24:30;;;;;;;13.80;12.50;;;;;;;11.69;90.40;100111.27;420110;1277;142753;-72
2022/10/18 22:34:36;;;;;;;13.10;11.70;;;;;;;11.58;90.16;100108.77;419542;1285;142466;-73
2022/10/18 22:44:42;;;;;;;13.80;11.90;;;;;;;11.28;89.87;100107.55;419245;1278;144143;-73
2022/10/18 22:54:48;;;;;;;13.70;12.30;;;;;;;10.96;89.93;100107.45;418699;1278;143083;-73
2022/10/18 23:04:54;;;;;;;14.30;12.10;;;;;;;10.74;90.17;100102.25;433223;1284;145597;-73
2022/10/18 23:15:00;;;;;;;13.30;11.10;;;;;;;10.69;90.61;100100.06;434793;1277;144643;-74
2022/10/18 23:25:07;;;;;;;14.30;12.20;;;;;;;10.52;90.54;100100.63;435525;1277;142373;-74
2022/10/18 23:35:13;;;;;;;17.00;12.20;;;;;;;10.60;91.19;100100.05;435044;1286;143713;-73
2022/10/18 23:45:19;;;;;;;12.70;11.40;;;;;;;10.71;90.90;100099.39;433613;1284;198228;-73
2022/10/18 23:55:25;;;;;;;18.30;12.00;;;;;;;10.69;90.88;100100.75;422217;1278;144135;-73
